Time;durP1;ratioP1;P1;durP2;ratioP2;P2;SDS_P1;SDS_P2;PMS_P1;PMS_P2;Temp;Humidity;BMP_temperature;BMP_pressure;BME280_temperature;BME280_humidity;BME280_pressure;Samples;Min_cycle;Max_cycle;Signal;HPM_P1;HPM_P2
2023/09/14 00:00:55;;;;;;;464.08;122.20;;;;;;;;;;5036022;28;20441;-73
2023/09/14 00:03:25;;;;;;;472.30;130.02;;;;;;;;;;5034520;28;20464;-74
2023/09/14 00:05:52;;;;;;;576.20;250.20;;;;;;;;;;5038065;28;20516;-74
2023/09/14 00:08:21;;;;;;;540.03;221.80;;;;;;;;;;5032248;28;20429;-73
2023/09/14 00:10:55;;;;;;;608.90;514.50;;;;;;;;;;5031956;28;20438;-75
2023/09/14 00:13:22;;;;;;;598.53;451.17;;;;;;;;;;5030787;28;20426;-75
2023/09/14 00:15:52;;;;;;;597.20;469.08;;;;;;;;;;5027019;28;20462;-74
2023/09/14 00:18:20;;;;;;;534.33;223.20;;;;;;;;;;5036643;28;20549;-75
2023/09/14 00:20:52;;;;;;;561.17;291.90;;;;;;;;;;5033951;28;20509;-74
2023/09/14 00:23:20;;;;;;;577.42;401.73;;;;;;;;;;5026081;28;20434;-74
2023/09/14 00:25:48;;;;;;;618.30;432.92;;;;;;;;;;5034662;28;20430;-74
2023/09/14 00:28:17;;;;;;;792.42;445.13;;;;;;;;;;5019738;28;20435;-76
2023/09/14 00:30:44;;;;;;;798.03;474.50;;;;;;;;;;5022088;28;20443;-74
2023/09/14 00:33:11;;;;;;;500.83;167.35;;;;;;;;;;5039823;28;20431;-74
2023/09/14 00:35:38;;;;;;;486.80;146.90;;;;;;;;;;5021446;28;20439;-74
2023/09/14 00:38:06;;;;;;;448.88;128.82;;;;;;;;;;5033325;28;20445;-74
2023/09/14 00:40:33;;;;;;;435.50;139.30;;;;;;;;;;5029909;28;20438;-73
2023/09/14 00:43:02;;;;;;;95.43;49.25;;;;;;;;;;5029505;28;20949;-74
2023/09/14 00:45:30;;;;;;;31.42;20.38;;;;;;;;;;5033456;28;20443;-74
2023/09/14 00:47:58;;;;;;;53.35;50.50;;;;;;;;;;5032798;28;20434;-73
2023/09/14 00:50:26;;;;;;;91.75;86.95;;;;;;;;;;5033233;28;20437;-74
2023/09/14 00:53:08;;;;;;;118.90;112.85;;;;;;;;;;5026537;28;20517;-74
2023/09/14 00:55:35;;;;;;;113.32;107.47;;;;;;;;;;5029786;28;20925;-73
2023/09/14 00:58:03;;;;;;;98.57;93.45;;;;;;;;;;5028946;28;20464;-74
2023/09/14 01:00:31;;;;;;;79.30;75.10;;;;;;;;;;5033539;28;20430;-73
2023/09/14 01:02:59;;;;;;;103.65;98.35;;;;;;;;;;5029937;28;20433;-74
2023/09/14 01:05:30;;;;;;;77.95;73.93;;;;;;;;;;5033820;28;20425;-73
2023/09/14 01:07:58;;;;;;;108.40;102.88;;;;;;;;;;5044280;28;20545;-73
2023/09/14 01:10:29;;;;;;;87.65;83.07;;;;;;;;;;5023128;28;20516;-74
2023/09/14 01:12:57;;;;;;;46.43;43.87;;;;;;;;;;5025875;28;20499;-73
2023/09/14 01:15:33;;;;;;;36.77;34.80;;;;;;;;;;5029080;28;20430;-73
2023/09/14 01:18:04;;;;;;;49.50;46.88;;;;;;;;;;5025099;28;20435;-74
2023/09/14 01:20:50;;;;;;;59.22;56.03;;;;;;;;;;5028722;28;20860;-74
2023/09/14 01:23:35;;;;;;;65.07;61.67;;;;;;;;;;5030098;28;20428;-74
2023/09/14 01:26:06;;;;;;;48.70;46.08;;;;;;;;;;5030830;28;20602;-74
2023/09/14 01:28:34;;;;;;;60.67;57.47;;;;;;;;;;5031989;28;20435;-74
2023/09/14 01:31:01;;;;;;;31.10;26.73;;;;;;;;;;5034850;28;20520;-75
2023/09/14 01:33:29;;;;;;;49.85;47.15;;;;;;;;;;5035934;28;20859;-74
2023/09/14 01:36:06;;;;;;;76.95;72.88;;;;;;;;;;5029427;28;21071;-73
2023/09/14 01:38:34;;;;;;;31.67;29.92;;;;;;;;;;5036323;28;20490;-74
2023/09/14 01:41:02;;;;;;;40.85;38.63;;;;;;;;;;5029150;28;20438;-74
2023/09/14 01:43:31;;;;;;;38.30;36.28;;;;;;;;;;5034062;28;20434;-74
2023/09/14 01:45:58;;;;;;;51.05;48.35;;;;;;;;;;5029598;28;20449;-75
2023/09/14 01:48:26;;;;;;;67.03;63.42;;;;;;;;;;5031606;28;20433;-74
2023/09/14 01:50:53;;;;;;;73.22;69.43;;;;;;;;;;5021231;28;20435;-74
2023/09/14 01:53:20;;;;;;;62.95;59.55;;;;;;;;;;5035077;28;20921;-74
2023/09/14 01:55:47;;;;;;;56.70;53.60;;;;;;;;;;5032272;28;20426;-74
2023/09/14 01:58:15;;;;;;;70.38;66.57;;;;;;;;;;5043868;28;20460;-73
2023/09/14 02:00:42;;;;;;;63.83;60.53;;;;;;;;;;5030998;28;20522;-73
2023/09/14 02:03:09;;;;;;;60.85;57.55;;;;;;;;;;5036448;28;20434;-74
2023/09/14 02:05:36;;;;;;;48.13;45.30;;;;;;;;;;5034082;28;20961;-73
2023/09/14 02:08:04;;;;;;;54.25;50.70;;;;;;;;;;5041536;28;20502;-73
2023/09/14 02:10:31;;;;;;;55.80;52.17;;;;;;;;;;5041004;28;20983;-73
2023/09/14 02:12:58;;;;;;;54.58;51.08;;;;;;;;;;5035071;28;20517;-73
2023/09/14 02:15:31;;;;;;;57.15;53.58;;;;;;;;;;5034749;28;20441;-73
2023/09/14 02:18:01;;;;;;;35.15;33.03;;;;;;;;;;5041603;28;20433;-73
2023/09/14 02:20:28;;;;;;;46.40;43.53;;;;;;;;;;5041199;28;20432;-73
2023/09/14 02:22:55;;;;;;;50.55;47.25;;;;;;;;;;5040840;28;20438;-73
2023/09/14 02:25:22;;;;;;;52.35;49.20;;;;;;;;;;5033758;28;20427;-73
2023/09/14 02:27:49;;;;;;;54.47;51.20;;;;;;;;;;5030607;28;20878;-73
2023/09/14 02:30:17;;;;;;;44.92;41.97;;;;;;;;;;5028022;28;20460;-73
2023/09/14 02:32:44;;;;;;;57.80;54.27;;;;;;;;;;5027216;28;20485;-73
2023/09/14 02:35:14;;;;;;;51.92;48.47;;;;;;;;;;5027940;28;20496;-73
2023/09/14 02:37:41;;;;;;;46.25;43.25;;;;;;;;;;5030047;28;20510;-72
2023/09/14 02:40:08;;;;;;;58.92;55.13;;;;;;;;;;5031344;28;21309;-74
2023/09/14 02:42:37;;;;;;;53.35;49.95;;;;;;;;;;5034094;28;20434;-73
2023/09/14 02:45:05;;;;;;;44.78;41.88;;;;;;;;;;5032710;28;20431;-73
2023/09/14 02:47:32;;;;;;;59.30;55.58;;;;;;;;;;5034751;28;20915;-74
2023/09/14 02:50:00;;;;;;;55.65;52.03;;;;;;;;;;5026620;28;20426;-74
2023/09/14 02:52:27;;;;;;;53.22;50.05;;;;;;;;;;5031047;28;20431;-74
2023/09/14 02:54:54;;;;;;;36.63;34.53;;;;;;;;;;5039951;28;20429;-74
2023/09/14 02:57:21;;;;;;;43.83;41.17;;;;;;;;;;5030450;28;20551;-73
2023/09/14 02:59:48;;;;;;;45.90;43.33;;;;;;;;;;5030829;28;20430;-75
2023/09/14 03:02:18;;;;;;;41.80;39.03;;;;;;;;;;5035264;28;20447;-72
2023/09/14 03:04:48;;;;;;;29.25;27.33;;;;;;;;;;5035528;28;20440;-73
2023/09/14 03:07:16;;;;;;;38.17;35.63;;;;;;;;;;5045556;28;20528;-71
2023/09/14 03:09:43;;;;;;;43.38;40.42;;;;;;;;;;5024899;28;21101;-73
2023/09/14 03:12:10;;;;;;;35.50;33.03;;;;;;;;;;5036037;28;20466;-73
2023/09/14 03:14:40;;;;;;;29.08;27.35;;;;;;;;;;5030685;28;20437;-73
2023/09/14 03:17:07;;;;;;;42.65;39.72;;;;;;;;;;5031698;28;20426;-74
2023/09/14 03:19:34;;;;;;;38.17;35.65;;;;;;;;;;5025856;28;20439;-74
2023/09/14 03:22:01;;;;;;;54.60;51.15;;;;;;;;;;5026709;28;20447;-74
2023/09/14 03:24:29;;;;;;;63.13;59.10;;;;;;;;;;5035261;28;20529;-73
2023/09/14 03:26:56;;;;;;;62.13;58.20;;;;;;;;;;5032686;28;20439;-74
2023/09/14 03:29:23;;;;;;;55.80;52.20;;;;;;;;;;5034462;28;20428;-73
2023/09/14 03:31:50;;;;;;;51.08;47.70;;;;;;;;;;5034970;28;20432;-73
2023/09/14 03:34:18;;;;;;;49.53;46.25;;;;;;;;;;5031059;28;20431;-73
2023/09/14 03:36:49;;;;;;;56.45;52.88;;;;;;;;;;5043929;28;20504;-74
2023/09/14 03:39:16;;;;;;;44.40;41.35;;;;;;;;;;5030568;28;20480;-74
2023/09/14 03:41:44;;;;;;;42.65;39.70;;;;;;;;;;5028622;28;21032;-73
2023/09/14 03:44:11;;;;;;;59.90;56.15;;;;;;;;;;5025605;28;20438;-73
2023/09/14 03:46:39;;;;;;;47.08;43.90;;;;;;;;;;5033913;28;20522;-73
2023/09/14 03:49:07;;;;;;;47.63;44.38;;;;;;;;;;5041222;28;20510;-74
2023/09/14 03:51:35;;;;;;;55.45;51.72;;;;;;;;;;5040806;28;20437;-73
2023/09/14 03:54:02;;;;;;;52.47;49.08;;;;;;;;;;5031220;28;21095;-73
2023/09/14 03:56:29;;;;;;;51.57;48.17;;;;;;;;;;5029332;28;20536;-74
2023/09/14 03:58:56;;;;;;;46.53;43.40;;;;;;;;;;5033847;28;20921;-74
2023/09/14 04:01:24;;;;;;;52.97;49.67;;;;;;;;;;5033389;28;20427;-74
2023/09/14 04:03:53;;;;;;;54.35;50.90;;;;;;;;;;5027004;28;20886;-74
2023/09/14 04:06:25;;;;;;;52.37;48.97;;;;;;;;;;5023633;28;20918;-73
2023/09/14 04:08:52;;;;;;;56.75;53.17;;;;;;;;;;5031806;28;20430;-73
2023/09/14 04:11:19;;;;;;;56.63;53.05;;;;;;;;;;5027364;28;20427;-73
2023/09/14 04:13:47;;;;;;;59.00;55.28;;;;;;;;;;5028930;28;20429;-74
2023/09/14 04:16:15;;;;;;;57.65;53.95;;;;;;;;;;5053276;28;20746;-74
2023/09/14 04:18:42;;;;;;;60.97;57.17;;;;;;;;;;5031298;28;21004;-73
2023/09/14 04:21:09;;;;;;;60.90;57.08;;;;;;;;;;5047287;28;20763;-73
2023/09/14 04:23:36;;;;;;;55.57;51.97;;;;;;;;;;5025528;28;21141;-74
2023/09/14 04:26:04;;;;;;;58.15;54.50;;;;;;;;;;5017401;28;20437;-74
2023/09/14 04:28:31;;;;;;;53.08;49.67;;;;;;;;;;5033472;28;20520;-73
2023/09/14 04:30:59;;;;;;;59.03;55.38;;;;;;;;;;5032125;28;20446;-73
2023/09/14 04:33:33;;;;;;;62.05;58.22;;;;;;;;;;5025032;28;20433;-73
2023/09/14 04:36:07;;;;;;;57.67;53.83;;;;;;;;;;5026128;28;20504;-73
2023/09/14 04:38:34;;;;;;;66.93;62.88;;;;;;;;;;5031320;28;20536;-73
2023/09/14 04:41:05;;;;;;;83.75;78.80;;;;;;;;;;5029736;28;20437;-73
2023/09/14 04:43:32;;;;;;;74.68;70.20;;;;;;;;;;5021925;28;21098;-74
2023/09/14 04:46:00;;;;;;;71.53;67.18;;;;;;;;;;5033210;28;20509;-73
2023/09/14 04:48:28;;;;;;;74.97;70.47;;;;;;;;;;5033697;28;20421;-73
2023/09/14 04:50:56;;;;;;;73.28;68.93;;;;;;;;;;5028456;28;20431;-74
2023/09/14 04:53:24;;;;;;;75.63;71.05;;;;;;;;;;5026999;28;20431;-75
2023/09/14 04:55:52;;;;;;;72.10;67.93;;;;;;;;;;5029749;28;20901;-74
2023/09/14 04:58:19;;;;;;;67.97;63.88;;;;;;;;;;5021929;28;20420;-73
2023/09/14 05:00:49;;;;;;;61.65;57.85;;;;;;;;;;5021322;28;20423;-73
2023/09/14 05:03:17;;;;;;;62.13;58.40;;;;;;;;;;5023961;28;20457;-73
2023/09/14 05:05:49;;;;;;;64.25;60.25;;;;;;;;;;5025927;28;20504;-73
2023/09/14 05:08:16;;;;;;;72.20;67.85;;;;;;;;;;5025619;28;20449;-73
2023/09/14 05:10:43;;;;;;;73.32;68.88;;;;;;;;;;5036217;28;20510;-74
2023/09/14 05:13:10;;;;;;;73.60;69.18;;;;;;;;;;5036448;28;20425;-74
2023/09/14 05:15:40;;;;;;;73.22;68.85;;;;;;;;;;5029330;28;20429;-73
2023/09/14 05:18:07;;;;;;;63.13;59.33;;;;;;;;;;5023524;28;20462;-73
2023/09/14 05:20:37;;;;;;;63.92;60.03;;;;;;;;;;5026419;28;20524;-72
2023/09/14 05:23:05;;;;;;;64.97;61.00;;;;;;;;;;5026754;28;20500;-72
2023/09/14 05:25:32;;;;;;;71.97;67.72;;;;;;;;;;5021256;28;20437;-72
2023/09/14 05:27:59;;;;;;;63.97;60.13;;;;;;;;;;5047236;28;20425;-72
2023/09/14 05:30:26;;;;;;;68.03;63.77;;;;;;;;;;5025940;28;20449;-72
2023/09/14 05:32:54;;;;;;;62.92;59.05;;;;;;;;;;5019797;28;20439;-72
2023/09/14 05:35:21;;;;;;;71.15;66.80;;;;;;;;;;5054694;28;20492;-72
2023/09/14 05:37:48;;;;;;;69.50;65.30;;;;;;;;;;5026077;28;20913;-72
2023/09/14 05:40:17;;;;;;;67.20;63.03;;;;;;;;;;5024762;28;20443;-72
2023/09/14 05:42:44;;;;;;;68.43;64.28;;;;;;;;;;5025104;28;20426;-71
2023/09/14 05:45:11;;;;;;;68.72;64.38;;;;;;;;;;5024634;28;20442;-73
2023/09/14 05:47:39;;;;;;;72.65;68.28;;;;;;;;;;5045172;28;20526;-72
2023/09/14 05:50:10;;;;;;;72.93;68.55;;;;;;;;;;5020026;28;20438;-72
2023/09/14 05:52:37;;;;;;;72.03;67.55;;;;;;;;;;5019983;28;20432;-71
2023/09/14 05:55:06;;;;;;;70.15;65.90;;;;;;;;;;5023271;28;20430;-71
2023/09/14 05:57:33;;;;;;;75.32;70.70;;;;;;;;;;5035132;28;20510;-71
2023/09/14 06:00:00;;;;;;;73.53;68.93;;;;;;;;;;5026535;28;20440;-71
2023/09/14 06:02:27;;;;;;;73.65;69.05;;;;;;;;;;5027238;28;20430;-72
2023/09/14 06:04:55;;;;;;;78.38;73.57;;;;;;;;;;5021376;28;20473;-72
2023/09/14 06:07:41;;;;;;;82.18;77.20;;;;;;;;;;5026115;28;20431;-72
2023/09/14 06:10:08;;;;;;;88.75;83.40;;;;;;;;;;5033821;28;20422;-72
2023/09/14 06:12:35;;;;;;;79.90;74.95;;;;;;;;;;5031998;28;20428;-73
2023/09/14 06:15:02;;;;;;;92.35;86.78;;;;;;;;;;5027866;28;20431;-72
2023/09/14 06:17:30;;;;;;;93.65;88.00;;;;;;;;;;5028740;28;20448;-72
2023/09/14 06:19:57;;;;;;;88.47;82.97;;;;;;;;;;5021862;28;20476;-72
2023/09/14 06:22:24;;;;;;;76.32;71.47;;;;;;;;;;5018664;28;20521;-73
2023/09/14 06:24:54;;;;;;;86.05;81.20;;;;;;;;;;5025382;28;20437;-73
2023/09/14 06:27:21;;;;;;;88.50;83.68;;;;;;;;;;5026443;28;20492;-74
2023/09/14 06:29:48;;;;;;;81.70;76.57;;;;;;;;;;5019133;28;20460;-72
2023/09/14 06:32:15;;;;;;;92.50;86.88;;;;;;;;;;5022458;28;20438;-72
2023/09/14 06:34:42;;;;;;;97.07;92.07;;;;;;;;;;5017733;28;20529;-72
2023/09/14 06:37:10;;;;;;;95.97;90.13;;;;;;;;;;5022864;28;20898;-73
2023/09/14 06:39:38;;;;;;;86.43;81.03;;;;;;;;;;5023569;28;20434;-73
2023/09/14 06:42:06;;;;;;;101.25;95.10;;;;;;;;;;5031630;28;20509;-72
2023/09/14 06:44:33;;;;;;;81.25;76.07;;;;;;;;;;5028484;28;20476;-74
2023/09/14 06:47:01;;;;;;;96.05;90.15;;;;;;;;;;5032522;28;20505;-73
2023/09/14 06:49:28;;;;;;;93.38;87.63;;;;;;;;;;5025213;28;20803;-74
2023/09/14 06:51:56;;;;;;;97.28;91.43;;;;;;;;;;5023726;28;20492;-73
2023/09/14 06:54:25;;;;;;;87.18;82.22;;;;;;;;;;5027829;28;20434;-70
2023/09/14 06:56:54;;;;;;;95.97;90.10;;;;;;;;;;5016842;28;20445;-71
2023/09/14 06:59:22;;;;;;;74.37;69.53;;;;;;;;;;5017435;28;20435;-71
2023/09/14 07:01:51;;;;;;;95.47;89.93;;;;;;;;;;5028249;28;20431;-71
2023/09/14 07:04:19;;;;;;;124.53;117.40;;;;;;;;;;5042840;28;20438;-69
2023/09/14 07:06:46;;;;;;;128.88;121.88;;;;;;;;;;5028722;28;20438;-70
2023/09/14 07:09:14;;;;;;;106.72;100.43;;;;;;;;;;5032691;28;20449;-70
2023/09/14 07:11:41;;;;;;;100.18;94.63;;;;;;;;;;5032072;28;20450;-70
2023/09/14 07:14:08;;;;;;;111.45;104.90;;;;;;;;;;5025244;28;20492;-73
2023/09/14 07:16:36;;;;;;;103.53;97.35;;;;;;;;;;5022426;28;20522;-68
2023/09/14 07:19:03;;;;;;;131.88;124.43;;;;;;;;;;5023391;28;20949;-70
2023/09/14 07:21:36;;;;;;;115.30;109.17;;;;;;;;;;5027812;28;20431;-72
2023/09/14 07:24:07;;;;;;;108.30;101.93;;;;;;;;;;5024859;28;20505;-69
2023/09/14 07:26:34;;;;;;;118.63;111.82;;;;;;;;;;5024270;28;20440;-69
2023/09/14 07:29:02;;;;;;;138.73;131.00;;;;;;;;;;5031530;28;20433;-71
2023/09/14 07:31:30;;;;;;;139.38;131.55;;;;;;;;;;5022637;28;21129;-72
2023/09/14 07:33:58;;;;;;;145.32;137.80;;;;;;;;;;5024653;28;20435;-71
2023/09/14 07:36:28;;;;;;;82.57;77.65;;;;;;;;;;5018389;28;20505;-71
2023/09/14 07:38:55;;;;;;;88.68;83.43;;;;;;;;;;5025849;28;20505;-71
2023/09/14 07:41:22;;;;;;;104.00;98.38;;;;;;;;;;5019210;28;20438;-71
2023/09/14 07:43:49;;;;;;;109.18;103.07;;;;;;;;;;5044390;28;20992;-70
2023/09/14 07:46:19;;;;;;;79.22;74.43;;;;;;;;;;5037778;28;20421;-69
2023/09/14 07:48:46;;;;;;;94.57;89.13;;;;;;;;;;5024718;28;20445;-72
2023/09/14 07:51:13;;;;;;;81.05;76.13;;;;;;;;;;5024523;28;21263;-70
2023/09/14 07:53:40;;;;;;;92.50;87.00;;;;;;;;;;5024446;28;20423;-69
2023/09/14 07:56:08;;;;;;;78.25;73.38;;;;;;;;;;5030657;28;20479;-70
2023/09/14 07:58:35;;;;;;;95.47;90.05;;;;;;;;;;5024863;28;20510;-69
2023/09/14 08:01:02;;;;;;;101.38;95.78;;;;;;;;;;5026137;28;20430;-70
2023/09/14 08:03:30;;;;;;;103.28;97.20;;;;;;;;;;5025382;28;20442;-71
2023/09/14 08:05:57;;;;;;;105.65;99.68;;;;;;;;;;5025582;28;20435;-69
2023/09/14 08:08:27;;;;;;;83.40;78.45;;;;;;;;;;5021397;28;20431;-69
2023/09/14 08:10:55;;;;;;;78.55;73.93;;;;;;;;;;5025245;28;20427;-71
2023/09/14 08:13:23;;;;;;;93.03;87.67;;;;;;;;;;5024714;28;20427;-69
2023/09/14 08:15:50;;;;;;;96.03;90.10;;;;;;;;;;5016381;28;20440;-69
2023/09/14 08:18:20;;;;;;;69.35;65.18;;;;;;;;;;5021678;28;20934;-69
2023/09/14 08:20:47;;;;;;;89.53;84.30;;;;;;;;;;5026823;28;20433;-70
2023/09/14 08:23:15;;;;;;;76.80;72.32;;;;;;;;;;5027018;28;20435;-69
2023/09/14 08:25:46;;;;;;;89.05;83.65;;;;;;;;;;5025225;28;20547;-69
2023/09/14 08:28:17;;;;;;;91.38;85.93;;;;;;;;;;5022726;28;21284;-70
2023/09/14 08:30:45;;;;;;;88.70;83.43;;;;;;;;;;5024717;28;20426;-68
2023/09/14 08:33:13;;;;;;;100.07;94.47;;;;;;;;;;5024892;28;20430;-69
2023/09/14 08:35:47;;;;;;;98.93;93.03;;;;;;;;;;5021945;28;20436;-70
2023/09/14 08:38:14;;;;;;;97.97;91.85;;;;;;;;;;5026092;28;20461;-69
2023/09/14 08:40:52;;;;;;;108.00;102.03;;;;;;;;;;5017352;28;20464;-68
2023/09/14 08:43:20;;;;;;;80.80;75.72;;;;;;;;;;5029547;28;20451;-69
2023/09/14 08:45:50;;;;;;;68.10;63.78;;;;;;;;;;5021365;28;20430;-69
2023/09/14 08:48:21;;;;;;;72.07;67.38;;;;;;;;;;5023571;28;20474;-68
2023/09/14 08:50:48;;;;;;;106.90;100.90;;;;;;;;;;5021069;28;20431;-69
2023/09/14 08:53:16;;;;;;;92.18;86.45;;;;;;;;;;5027982;28;20449;-69
2023/09/14 08:55:43;;;;;;;84.30;79.07;;;;;;;;;;5016880;28;20438;-69
2023/09/14 08:58:14;;;;;;;118.35;111.65;;;;;;;;;;5021586;28;20552;-68
2023/09/14 09:00:42;;;;;;;103.60;97.95;;;;;;;;;;5022389;28;20466;-70
2023/09/14 09:03:09;;;;;;;112.28;106.10;;;;;;;;;;5028024;28;20435;-68
2023/09/14 09:05:36;;;;;;;100.32;94.38;;;;;;;;;;5008717;28;21444;-67
2023/09/14 09:08:04;;;;;;;106.85;100.82;;;;;;;;;;5001918;28;20435;-68
2023/09/14 09:10:31;;;;;;;85.30;80.03;;;;;;;;;;5008247;28;20435;-71
2023/09/14 09:12:59;;;;;;;80.87;75.77;;;;;;;;;;5017642;28;20439;-69
2023/09/14 09:15:32;;;;;;;86.25;80.85;;;;;;;;;;5015346;28;20435;-68
2023/09/14 09:18:06;;;;;;;117.15;110.22;;;;;;;;;;5035243;28;20799;-69
2023/09/14 09:20:34;;;;;;;97.15;91.28;;;;;;;;;;5019618;28;20450;-69
2023/09/14 09:23:02;;;;;;;103.57;97.13;;;;;;;;;;5026142;28;20470;-69
2023/09/14 09:25:29;;;;;;;111.18;104.90;;;;;;;;;;5024238;28;20518;-68
2023/09/14 09:27:57;;;;;;;92.85;87.18;;;;;;;;;;5026200;28;20495;-69
2023/09/14 09:30:35;;;;;;;124.55;117.40;;;;;;;;;;5022325;28;20438;-68
2023/09/14 09:33:04;;;;;;;129.63;122.23;;;;;;;;;;5022415;28;20430;-69
2023/09/14 09:35:34;;;;;;;107.30;100.90;;;;;;;;;;5022097;28;20430;-72
2023/09/14 09:38:11;;;;;;;107.90;101.53;;;;;;;;;;5017991;28;20586;-72
2023/09/14 09:40:44;;;;;;;111.03;104.32;;;;;;;;;;5021669;28;20426;-69
2023/09/14 09:43:19;;;;;;;107.40;101.30;;;;;;;;;;5014593;28;20912;-69
2023/09/14 09:45:47;;;;;;;102.73;96.63;;;;;;;;;;5021427;28;20440;-69
2023/09/14 09:48:14;;;;;;;116.10;109.63;;;;;;;;;;5023347;28;20823;-71
2023/09/14 09:50:42;;;;;;;121.40;114.47;;;;;;;;;;5019477;28;20438;-70
2023/09/14 09:53:10;;;;;;;123.97;117.28;;;;;;;;;;5021039;28;20427;-70
2023/09/14 09:55:38;;;;;;;143.65;135.70;;;;;;;;;;5021267;28;20911;-70
2023/09/14 09:58:07;;;;;;;121.15;114.53;;;;;;;;;;5022080;28;20435;-70
2023/09/14 10:00:39;;;;;;;140.00;132.13;;;;;;;;;;5028119;28;20435;-72
2023/09/14 10:03:07;;;;;;;103.30;97.07;;;;;;;;;;5022949;28;20613;-69
2023/09/14 10:05:38;;;;;;;130.93;123.78;;;;;;;;;;5038991;28;20937;-69
2023/09/14 10:08:10;;;;;;;133.87;126.43;;;;;;;;;;5020381;28;20519;-67
2023/09/14 10:10:41;;;;;;;123.38;115.95;;;;;;;;;;5021580;28;20425;-70
2023/09/14 10:13:16;;;;;;;108.97;102.88;;;;;;;;;;5020504;28;20773;-71
2023/09/14 10:15:46;;;;;;;108.80;102.67;;;;;;;;;;5025397;28;21980;-69
2023/09/14 10:18:13;;;;;;;107.82;101.63;;;;;;;;;;5029118;28;20434;-70
2023/09/14 10:20:41;;;;;;;95.63;90.05;;;;;;;;;;5029037;28;20519;-71
2023/09/14 10:23:11;;;;;;;117.97;111.38;;;;;;;;;;5021736;28;20437;-70
2023/09/14 10:25:38;;;;;;;75.20;70.45;;;;;;;;;;5026213;28;20441;-73
2023/09/14 10:28:06;;;;;;;102.57;96.78;;;;;;;;;;5025558;28;20430;-71
2023/09/14 10:30:36;;;;;;;91.72;86.28;;;;;;;;;;5018297;28;20430;-70
2023/09/14 10:33:04;;;;;;;105.85;99.85;;;;;;;;;;5029939;28;20487;-71
2023/09/14 10:35:33;;;;;;;77.38;72.63;;;;;;;;;;5029765;28;20522;-71
2023/09/14 10:38:02;;;;;;;92.15;86.63;;;;;;;;;;5037520;28;20462;-69
2023/09/14 10:40:29;;;;;;;97.03;91.25;;;;;;;;;;5024289;28;20438;-72
2023/09/14 10:42:57;;;;;;;84.40;79.32;;;;;;;;;;5026142;28;20558;-71
2023/09/14 10:45:30;;;;;;;90.05;84.85;;;;;;;;;;5024178;28;20432;-69
2023/09/14 10:47:58;;;;;;;84.40;79.40;;;;;;;;;;5023329;28;20466;-73
2023/09/14 10:50:25;;;;;;;76.30;71.43;;;;;;;;;;5037474;28;20431;-71
2023/09/14 10:52:53;;;;;;;99.72;93.82;;;;;;;;;;5024010;28;20439;-70
2023/09/14 10:55:25;;;;;;;103.72;97.50;;;;;;;;;;5028298;28;20427;-70
2023/09/14 10:57:58;;;;;;;93.53;87.78;;;;;;;;;;5023132;28;20434;-70
2023/09/14 11:00:38;;;;;;;88.05;82.78;;;;;;;;;;5025758;28;20431;-70
2023/09/14 11:03:22;;;;;;;106.03;100.05;;;;;;;;;;5020427;28;20581;-70
2023/09/14 11:05:52;;;;;;;83.47;78.22;;;;;;;;;;5026253;28;20508;-71
2023/09/14 11:08:26;;;;;;;106.13;100.03;;;;;;;;;;5016744;28;20435;-70
2023/09/14 11:10:54;;;;;;;80.97;76.05;;;;;;;;;;5028721;28;20481;-71
2023/09/14 11:13:28;;;;;;;89.80;84.57;;;;;;;;;;5029848;28;20439;-70
2023/09/14 11:16:25;;;;;;;100.15;94.38;;;;;;;;;;5022376;28;20431;-68
2023/09/14 11:18:56;;;;;;;97.88;92.13;;;;;;;;;;5036825;28;20522;-69
2023/09/14 11:21:32;;;;;;;102.78;95.07;;;;;;;;;;5024057;28;20546;-71
2023/09/14 11:24:06;;;;;;;98.97;93.27;;;;;;;;;;5018912;28;20430;-70
2023/09/14 11:26:39;;;;;;;105.82;99.72;;;;;;;;;;5020000;28;20441;-70
2023/09/14 11:29:08;;;;;;;85.82;80.90;;;;;;;;;;5026871;28;20439;-70
2023/09/14 11:31:40;;;;;;;92.53;86.97;;;;;;;;;;5027475;28;20442;-70
2023/09/14 11:34:29;;;;;;;99.78;94.00;;;;;;;;;;5024153;28;20431;-71
2023/09/14 11:37:03;;;;;;;97.23;91.57;;;;;;;;;;5024314;28;20457;-70
2023/09/14 11:39:40;;;;;;;100.78;94.97;;;;;;;;;;5018483;28;20446;-71
2023/09/14 11:45:38;;;;;;;82.90;77.88;;;;;;;;;;5024388;28;20449;-71
2023/09/14 11:48:14;;;;;;;67.82;63.67;;;;;;;;;;5025230;28;20837;-70
2023/09/14 11:50:45;;;;;;;66.68;63.03;;;;;;;;;;5024463;28;20486;-70
2023/09/14 11:53:17;;;;;;;66.45;62.85;;;;;;;;;;5025449;28;20441;-71
2023/09/14 11:55:45;;;;;;;78.10;74.00;;;;;;;;;;5024198;28;20999;-72
2023/09/14 11:58:17;;;;;;;82.97;78.57;;;;;;;;;;5018608;28;20428;-70
2023/09/14 12:00:49;;;;;;;70.85;67.03;;;;;;;;;;5022897;28;20530;-70
2023/09/14 12:03:16;;;;;;;81.88;77.47;;;;;;;;;;5024874;28;21194;-70
2023/09/14 12:05:44;;;;;;;84.13;79.05;;;;;;;;;;5025696;28;20446;-71
2023/09/14 12:08:12;;;;;;;81.47;76.53;;;;;;;;;;5025351;28;21203;-71
2023/09/14 12:10:40;;;;;;;93.80;88.33;;;;;;;;;;5020785;28;20510;-70
2023/09/14 12:13:08;;;;;;;95.10;89.45;;;;;;;;;;5022862;28;20458;-72
2023/09/14 12:15:35;;;;;;;95.70;90.15;;;;;;;;;;5022315;28;20864;-71
2023/09/14 12:18:03;;;;;;;103.78;97.88;;;;;;;;;;5012814;28;20449;-70
2023/09/14 12:20:34;;;;;;;105.45;99.32;;;;;;;;;;5018695;28;21090;-71
2023/09/14 12:23:03;;;;;;;104.40;98.45;;;;;;;;;;5018650;28;20512;-70
2023/09/14 12:25:30;;;;;;;106.03;99.95;;;;;;;;;;5022123;28;20443;-71
2023/09/14 12:28:00;;;;;;;106.55;100.35;;;;;;;;;;5021105;28;20442;-71
2023/09/14 12:30:29;;;;;;;105.53;99.32;;;;;;;;;;5019982;28;20532;-69
2023/09/14 12:32:56;;;;;;;102.60;96.60;;;;;;;;;;5021316;28;20441;-69
2023/09/14 12:35:24;;;;;;;97.70;91.78;;;;;;;;;;5023063;28;20438;-71
2023/09/14 12:37:53;;;;;;;101.05;95.18;;;;;;;;;;5019561;28;20446;-70
2023/09/14 12:40:21;;;;;;;103.00;97.10;;;;;;;;;;5012078;28;20491;-71
2023/09/14 12:42:49;;;;;;;104.47;98.35;;;;;;;;;;5011705;28;20480;-70
2023/09/14 12:45:19;;;;;;;102.55;96.55;;;;;;;;;;5023199;28;20458;-70
2023/09/14 12:47:47;;;;;;;85.85;80.82;;;;;;;;;;5027726;28;20444;-71
2023/09/14 12:50:18;;;;;;;84.40;79.22;;;;;;;;;;5019247;28;20438;-72
2023/09/14 12:52:45;;;;;;;84.15;79.00;;;;;;;;;;5022219;28;20441;-69
2023/09/14 12:55:16;;;;;;;89.18;83.90;;;;;;;;;;5016026;28;20517;-69
2023/09/14 12:57:47;;;;;;;86.60;81.50;;;;;;;;;;5023848;28;20433;-71
2023/09/14 13:00:14;;;;;;;106.18;100.13;;;;;;;;;;5023767;28;20430;-70
2023/09/14 13:02:46;;;;;;;105.38;99.22;;;;;;;;;;5024337;28;20466;-69
2023/09/14 13:05:16;;;;;;;103.13;97.27;;;;;;;;;;5020186;28;20427;-69
2023/09/14 13:07:48;;;;;;;103.95;97.93;;;;;;;;;;5023037;28;20426;-70
2023/09/14 13:10:18;;;;;;;90.15;84.85;;;;;;;;;;5020838;28;20987;-72
2023/09/14 13:12:53;;;;;;;97.75;92.05;;;;;;;;;;5016092;28;20434;-69
2023/09/14 13:15:22;;;;;;;84.47;79.35;;;;;;;;;;5028104;28;20429;-70
2023/09/14 13:17:59;;;;;;;94.33;88.73;;;;;;;;;;5029113;28;20435;-71
2023/09/14 13:20:30;;;;;;;99.57;93.75;;;;;;;;;;5016158;28;20983;-68
2023/09/14 13:23:01;;;;;;;704.22;417.70;;;;;;;;;;5014472;28;20438;-72
2023/09/14 13:25:28;;;;;;;801.17;472.03;;;;;;;;;;5042489;28;20537;-71
2023/09/14 13:27:55;;;;;;;945.15;804.05;;;;;;;;;;5039792;28;20437;-71
2023/09/14 13:30:31;;;;;;;953.83;819.78;;;;;;;;;;5021759;28;20463;-73
2023/09/14 13:32:58;;;;;;;939.33;790.17;;;;;;;;;;5037775;28;20431;-72
2023/09/14 13:35:26;;;;;;;915.22;667.42;;;;;;;;;;5023734;28;20853;-72
2023/09/14 13:37:54;;;;;;;901.17;530.10;;;;;;;;;;5020207;28;20466;-70
2023/09/14 13:40:22;;;;;;;924.83;737.38;;;;;;;;;;5020527;28;20458;-71
2023/09/14 13:42:50;;;;;;;871.55;470.75;;;;;;;;;;5040441;28;20483;-69
2023/09/14 13:45:18;;;;;;;920.40;717.70;;;;;;;;;;5021306;28;20430;-72
2023/09/14 13:47:50;;;;;;;918.17;695.78;;;;;;;;;;5026593;28;20511;-70
2023/09/14 13:50:17;;;;;;;815.10;442.77;;;;;;;;;;5027647;28;20438;-72
2023/09/14 13:52:45;;;;;;;729.92;428.20;;;;;;;;;;5022172;28;20572;-71
2023/09/14 13:55:12;;;;;;;689.45;434.50;;;;;;;;;;5027188;28;20430;-72
2023/09/14 13:57:39;;;;;;;800.10;557.05;;;;;;;;;;5025222;28;20435;-70
2023/09/14 14:00:08;;;;;;;732.22;523.90;;;;;;;;;;5026926;28;20513;-70
2023/09/14 14:02:45;;;;;;;1049.27;934.50;;;;;;;;;;5027185;28;20430;-71
2023/09/14 14:05:13;;;;;;;1111.03;997.80;;;;;;;;;;5025688;28;20497;-71
2023/09/14 14:07:40;;;;;;;1164.47;999.90;;;;;;;;;;5027572;28;20492;-71
2023/09/14 14:10:10;;;;;;;1077.63;963.17;;;;;;;;;;5018093;28;20480;-69
2023/09/14 14:12:40;;;;;;;1011.97;902.10;;;;;;;;;;5023218;28;20877;-71
2023/09/14 14:15:08;;;;;;;1001.23;891.83;;;;;;;;;;5023875;28;20430;-71
2023/09/14 14:17:39;;;;;;;957.25;850.53;;;;;;;;;;5024111;28;20502;-71
2023/09/14 14:20:08;;;;;;;1022.38;912.58;;;;;;;;;;5022069;28;20428;-71
2023/09/14 14:22:36;;;;;;;974.92;867.78;;;;;;;;;;5019282;28;21075;-71